createdAt,value
2016-12-31T00:06:34.340Z,0
2016-12-31T00:16:49.272Z,0
2016-12-31T00:27:03.062Z,0
2016-12-31T00:37:16.413Z,0
2016-12-31T00:47:30.733Z,0
2016-12-31T00:57:45.608Z,0
2016-12-31T01:08:00.380Z,0
2016-12-31T01:18:14.354Z,0
2016-12-31T01:38:41.697Z,0
2016-12-31T01:48:55.367Z,0
2016-12-31T01:59:08.700Z,0
2016-12-31T02:09:23.132Z,0
2016-12-31T02:19:36.987Z,0
2016-12-31T02:29:51.516Z,0
2016-12-31T02:40:05.745Z,0
2016-12-31T02:50:20.535Z,0
2016-12-31T03:00:34.553Z,0
2016-12-31T03:10:49.038Z,0
2016-12-31T03:21:03.793Z,0
2016-12-31T03:31:17.393Z,0
2016-12-31T03:41:31.110Z,0
2016-12-31T03:51:44.324Z,0
2016-12-31T04:01:57.788Z,0
2016-12-31T04:12:11.862Z,0
2016-12-31T04:22:25.412Z,0
2016-12-31T04:32:40.030Z,0
2016-12-31T04:42:53.981Z,0
2016-12-31T04:53:09.042Z,0
2016-12-31T05:03:21.672Z,0
2016-12-31T05:13:35.063Z,0
2016-12-31T05:23:49.366Z,0
2016-12-31T05:34:03.060Z,0
2016-12-31T05:44:17.036Z,0
2016-12-31T05:54:31.650Z,0
2016-12-31T06:04:46.496Z,0
2016-12-31T06:14:59.679Z,0
2016-12-31T06:25:12.925Z,0
2016-12-31T06:35:26.648Z,0
2016-12-31T06:45:40.101Z,0
2016-12-31T06:55:54.568Z,0
2016-12-31T07:06:07.956Z,4
2016-12-31T07:16:22.970Z,24
2016-12-31T07:26:36.930Z,80
2016-12-31T07:36:50.610Z,208
2016-12-31T07:47:04.910Z,464
2016-12-31T07:57:18.184Z,672
2016-12-31T08:07:32.753Z,1064
2016-12-31T08:17:47.119Z,1180
2016-12-31T08:28:01.613Z,1368
2016-12-31T08:38:14.652Z,1632
2016-12-31T08:48:29.522Z,1900
2016-12-31T08:58:43.271Z,1896
2016-12-31T09:08:56.472Z,2568
2016-12-31T09:19:10.160Z,2884
2016-12-31T09:29:23.842Z,2816
2016-12-31T09:39:38.951Z,3256
2016-12-31T09:49:52.858Z,3120
2016-12-31T10:00:06.502Z,2940
2016-12-31T10:10:21.237Z,3684
2016-12-31T10:20:34.758Z,4532
2016-12-31T10:30:48.600Z,4332
2016-12-31T10:41:02.232Z,4260
2016-12-31T10:51:16.165Z,3692
2016-12-31T11:01:31.134Z,3380
2016-12-31T11:11:45.224Z,3852
2016-12-31T11:21:59.409Z,3892
2016-12-31T11:32:13.069Z,3560
2016-12-31T11:42:27.909Z,3768
2016-12-31T11:52:41.153Z,3452
2016-12-31T12:02:55.172Z,3864
2016-12-31T12:13:08.644Z,3904
2016-12-31T12:23:22.261Z,3732
2016-12-31T12:33:35.637Z,4188
2016-12-31T12:43:48.741Z,4424
2016-12-31T12:54:02.677Z,4016
2016-12-31T13:04:16.695Z,4128
2016-12-31T13:14:30.753Z,3660
2016-12-31T13:24:44.945Z,3168
2016-12-31T13:34:59.468Z,2624
2016-12-31T13:45:14.321Z,2440
2016-12-31T13:55:28.813Z,2156
2016-12-31T14:05:42.154Z,1904
2016-12-31T14:15:57.118Z,1824
2016-12-31T14:26:11.577Z,1520
2016-12-31T14:36:25.531Z,1180
2016-12-31T14:46:40.124Z,908
2016-12-31T14:56:54.142Z,676
2016-12-31T15:07:07.429Z,436
2016-12-31T15:17:21.291Z,284
2016-12-31T15:27:34.387Z,156
2016-12-31T15:37:48.868Z,68
2016-12-31T15:48:03.748Z,20
2016-12-31T15:58:17.352Z,4
2016-12-31T16:08:30.410Z,0
2016-12-31T16:18:45.369Z,0
2016-12-31T16:28:59.164Z,0
2016-12-31T16:39:13.316Z,0
2016-12-31T16:49:27.072Z,0
2016-12-31T16:59:40.282Z,0
2016-12-31T17:09:55.046Z,0
2016-12-31T17:20:09.878Z,0
2016-12-31T17:30:24.730Z,0
2016-12-31T17:40:38.790Z,0
2016-12-31T17:50:52.644Z,0
2016-12-31T18:01:07.135Z,0
2016-12-31T18:11:20.353Z,0
2016-12-31T18:21:35.058Z,0
2016-12-31T18:31:49.839Z,0
2016-12-31T18:42:03.955Z,0
2016-12-31T18:52:17.101Z,0
2016-12-31T19:02:31.630Z,0
2016-12-31T19:12:45.321Z,0
2016-12-31T19:23:00.070Z,0
2016-12-31T19:33:14.854Z,0
2016-12-31T19:43:28.415Z,0
2016-12-31T19:53:43.006Z,0
2016-12-31T20:03:57.291Z,0
2016-12-31T20:14:11.785Z,0
2016-12-31T20:24:25.533Z,0
2016-12-31T20:34:39.760Z,0
2016-12-31T20:44:55.395Z,0
2016-12-31T20:55:09.057Z,0
2016-12-31T21:05:22.622Z,0
2016-12-31T21:15:36.080Z,0
2016-12-31T21:25:50.280Z,0
2016-12-31T21:36:04.692Z,0
2016-12-31T21:46:19.263Z,0
2016-12-31T21:56:32.226Z,0
2016-12-31T22:06:47.203Z,0
2016-12-31T22:17:00.449Z,0
2016-12-31T22:27:13.981Z,0
2016-12-31T22:37:28.491Z,0
2016-12-31T22:47:41.785Z,0
2016-12-31T22:57:55.008Z,0
2016-12-31T23:08:09.781Z,0
2016-12-31T23:18:24.502Z,0
2016-12-31T23:28:38.537Z,0
2016-12-31T23:38:53.327Z,0
2016-12-31T23:49:07.067Z,0
2016-12-31T23:59:21.008Z,0
